METAR Data
IDs: Format: Raw Decoded Include TAF

Data at: 1348 UTC 14 Dec 2019

PANI 141256Z AUTO 03003KT 10SM CLR M08/M09 A2945 RMK AO2 SLP977 T10831094 FZRANO
PANI 141156Z AUTO 00000KT 10SM BKN100 M08/M09 A2946 RMK AO2 SLP981 T10831094 11050 21083 55000 FZRANO
PANI 141056Z AUTO 00000KT 10SM BKN055 M08/M09 A2946 RMK AO2 SLP980 T10781089 FZRANO
PANI 140956Z AUTO 04003KT 10SM BKN055 M07/M08 A2946 RMK AO2 SLP980 T10671083 FZRANO
PANI 140856Z AUTO 03005KT 10SM OVC050 M07/M08 A2947 RMK AO2 SLP981 T10671083 410501117 53003 FZRANO
PANI 140756Z AUTO 06003KT 10SM OVC049 M06/M08 A2946 RMK AO2 SLP980 T10611078 FZRANO
PANI 140656Z AUTO 00000KT 10SM OVC044 M05/M07 A2946 RMK AO2 SLP978 T10501067 FZRANO
PANI 140556Z AUTO 00000KT 10SM FEW044 SCT050 OVC060 M07/M08 A2946 RMK AO2 SNB0459E08 SLP977 P0000 60000 T10671083 11061 21078 58001 FZRANO
PANI 140456Z AUTO 05004KT 10SM BKN032 BKN065 OVC085 M07/M09 A2946 RMK AO2 SNE13 SLP980 P0000 T10721089 FZRANO
PANI 140356Z AUTO 00000KT 9SM -SN BKN037 OVC090 M07/M09 A2946 RMK AO2 SNB51 SLP979 P0000 T10721089 FZRANO
PANI 140256Z AUTO 04004KT 10SM FEW060 BKN100 M07/M09 A2946 RMK AO2 SLP978 60000 T10721089 52008 FZRANO
PANI 140156Z AUTO 07005KT 10SM SCT070 OVC110 M07/M09 A2945 RMK AO2 SNE34 SLP975 P0000 T10671089 FZRANO
PANI 140056Z AUTO 00000KT 10SM -SN FEW048 OVC060 M07/M09 A2944 RMK AO2 SNE32B56 SLP973 P0000 T10671089 FZRANO
PANI 132356Z AUTO 07003KT 9SM -SN FEW028 BKN046 OVC055 M07/M09 A2943 RMK AO2 SNB29 SLP970 P0000 60000 T10721094 11072 21117 51014 FZRANO
PANI 132256Z AUTO 13003KT 10SM SCT060 OVC070 M08/M10 A2943 RMK AO2 SLP967 T10781100 FZRANO
PANI 132156Z AUTO 07003KT 10SM SCT050 OVC070 M09/M11 A2941 RMK AO2 SLP963 T10891106 FZRANO
PANI 132056Z AUTO 06004KT 10SM OVC055 M11/M12 A2939 RMK AO2 SLP956 T11061117 53025 FZRANO
PANI 131956Z AUTO 00000KT 10SM SCT060 M12/M13 A2937 RMK AO2 SLP948 T11171128 FZRANO
PANI 131856Z AUTO 11003KT 10SM CLR M10/M12 A2934 RMK AO2 SLP938 T11001117 FZRANO
PANI 131756Z AUTO 09003KT 10SM CLR M10/M12 A2932 RMK AO2 SLP931 T11001117 11089 21106 51012 FZRANO
PANI 131556Z AUTO 06003KT 10SM SCT065 M10/M12 A2930 RMK AO2 SLP924 T11001117 FZRANO
PANI 131456Z AUTO 06003KT 10SM OVC070 M09/M11 A2928 RMK AO2 SLP919 T10891111 51006 FZRANO
PANI 131356Z AUTO 00000KT 10SM BKN070 M10/M12 A2928 RMK AO2 SLP918 T11001117 FZRANO
PANI 131256Z AUTO 05003KT 10SM OVC070 M09/M11 A2927 RMK AO2 SLP915 T10941111 FZRANO
PANI 131156Z AUTO 04003KT 10SM OVC075 M09/M11 A2926 RMK AO2 SLP912 T10941111 11083 21100 50003 FZRANO
PANI 131056Z AUTO 00000KT 10SM OVC080 M09/M11 A2927 RMK AO2 SLP914 T10941111 FZRANO
PANI 130956Z AUTO 02005KT 10SM CLR M10/M12 A2926 RMK AO2 SLP911 T11001117 FZRANO
PANI 130856Z AUTO VRB04KT 10SM CLR M09/M11 A2925 RMK AO2 SLP910 T10941111 410501094 55000 FZRANO
PANI 130756Z AUTO 00000KT 10SM CLR M09/M11 A2925 RMK AO2 SLP908 T10941111 FZRANO
PANI 130656Z AUTO 02004KT 10SM CLR M09/M11 A2925 RMK AO2 SLP908 T10891106 FZRANO
PANI 130556Z AUTO 01004KT 10SM CLR M08/M10 A2925 RMK AO2 SLP910 T10831100 11072 21083 56005 FZRANO
PANI 130456Z AUTO 36006KT 10SM CLR M08/M10 A2926 RMK AO2 SLP910 T10781100 FZRANO
PANI 130356Z AUTO 02005KT 10SM CLR M07/M09 A2926 RMK AO2 SLP913 T10721094 FZRANO
PANI 130256Z AUTO 36003KT 10SM CLR M07/M09 A2927 RMK AO2 SLP915 T10721094 56006 FZRANO
PANI 130156Z AUTO 36004KT 10SM CLR M07/M09 A2927 RMK AO2 SLP916 T10721094 FZRANO